<?xml version="1.0" encoding="UTF-8" standalone="no" ?>
<gpx xmlns="http://www.topografix.com/GPX/1/1" xmlns:xsi="http://www.w3.org/2001/XMLSchema-instance" xsi:schemaLocation="http://www.topografix.com/GPX/1/1 http://www.topografix.com/GPX/1/1/gpx.xsd" version="1.1" creator="VisuGPX - https://www.visugpx.com">
  <metadata>
    <name>Course à pied en soirée</name>
  </metadata>
  <trk>
    <name><![CDATA[Course à pied en soirée_1]]></name>
    <trkseg>
      <trkpt lat="48.71149" lon="7.16256">
        <ele>316.1</ele>
        <time>2023-09-23T16:06:00Z</time>
      </trkpt>
      <trkpt lat="48.71168" lon="7.16245">
        <ele>315.1</ele>
        <time>2023-09-23T16:06:06Z</time>
      </trkpt>
      <trkpt lat="48.71188" lon="7.1624">
        <ele>314.2</ele>
        <time>2023-09-23T16:06:11Z</time>
      </trkpt>
      <trkpt lat="48.71208" lon="7.1625">
        <ele>313.3</ele>
        <time>2023-09-23T16:06:16Z</time>
      </trkpt>
      <trkpt lat="48.71225" lon="7.16266">
        <ele>312.7</ele>
        <time>2023-09-23T16:06:21Z</time>
      </trkpt>
      <trkpt lat="48.71241" lon="7.16282">
        <ele>312.2</ele>
        <time>2023-09-23T16:06:26Z</time>
      </trkpt>
      <trkpt lat="48.71257" lon="7.16298">
        <ele>311.9</ele>
        <time>2023-09-23T16:06:31Z</time>
      </trkpt>
      <trkpt lat="48.71275" lon="7.16315">
        <ele>311.6</ele>
        <time>2023-09-23T16:06:37Z</time>
      </trkpt>
      <trkpt lat="48.71291" lon="7.16329">
        <ele>311.4</ele>
        <time>2023-09-23T16:06:42Z</time>
      </trkpt>
      <trkpt lat="48.71309" lon="7.16343">
        <ele>311.2</ele>
        <time>2023-09-23T16:06:48Z</time>
      </trkpt>
      <trkpt lat="48.71328" lon="7.16355">
        <ele>311</ele>
        <time>2023-09-23T16:06:54Z</time>
      </trkpt>
      <trkpt lat="48.71346" lon="7.16363">
        <ele>310.7</ele>
        <time>2023-09-23T16:07:00Z</time>
      </trkpt>
      <trkpt lat="48.71366" lon="7.16371">
        <ele>310.3</ele>
        <time>2023-09-23T16:07:06Z</time>
      </trkpt>
      <trkpt lat="48.71386" lon="7.16379">
        <ele>309.6</ele>
        <time>2023-09-23T16:07:12Z</time>
      </trkpt>
      <trkpt lat="48.71404" lon="7.16386">
        <ele>308.8</ele>
        <time>2023-09-23T16:07:17Z</time>
      </trkpt>
      <trkpt lat="48.71422" lon="7.16388">
        <ele>307.8</ele>
        <time>2023-09-23T16:07:22Z</time>
      </trkpt>
      <trkpt lat="48.71444" lon="7.16392">
        <ele>306.6</ele>
        <time>2023-09-23T16:07:28Z</time>
      </trkpt>
      <trkpt lat="48.71465" lon="7.16393">
        <ele>305.4</ele>
        <time>2023-09-23T16:07:34Z</time>
      </trkpt>
      <trkpt lat="48.71483" lon="7.16391">
        <ele>304.6</ele>
        <time>2023-09-23T16:07:39Z</time>
      </trkpt>
      <trkpt lat="48.71502" lon="7.16387">
        <ele>303.8</ele>
        <time>2023-09-23T16:07:45Z</time>
      </trkpt>
      <trkpt lat="48.7152" lon="7.16371">
        <ele>303</ele>
        <time>2023-09-23T16:07:51Z</time>
      </trkpt>
      <trkpt lat="48.71539" lon="7.1636">
        <ele>302.3</ele>
        <time>2023-09-23T16:07:57Z</time>
      </trkpt>
      <trkpt lat="48.71557" lon="7.16356">
        <ele>301.8</ele>
        <time>2023-09-23T16:08:03Z</time>
      </trkpt>
      <trkpt lat="48.71577" lon="7.16348">
        <ele>302.9</ele>
        <time>2023-09-23T16:08:09Z</time>
      </trkpt>
      <trkpt lat="48.71595" lon="7.16331">
        <ele>304.8</ele>
        <time>2023-09-23T16:08:15Z</time>
      </trkpt>
      <trkpt lat="48.71614" lon="7.16324">
        <ele>305.3</ele>
        <time>2023-09-23T16:08:21Z</time>
      </trkpt>
      <trkpt lat="48.71633" lon="7.16325">
        <ele>304.8</ele>
        <time>2023-09-23T16:08:26Z</time>
      </trkpt>
      <trkpt lat="48.71651" lon="7.16326">
        <ele>304.2</ele>
        <time>2023-09-23T16:08:31Z</time>
      </trkpt>
      <trkpt lat="48.71672" lon="7.16322">
        <ele>303.4</ele>
        <time>2023-09-23T16:08:37Z</time>
      </trkpt>
      <trkpt lat="48.71693" lon="7.16319">
        <ele>302.7</ele>
        <time>2023-09-23T16:08:43Z</time>
      </trkpt>
      <trkpt lat="48.71712" lon="7.16316">
        <ele>302.2</ele>
        <time>2023-09-23T16:08:49Z</time>
      </trkpt>
      <trkpt lat="48.71732" lon="7.16314">
        <ele>301.5</ele>
        <time>2023-09-23T16:08:55Z</time>
      </trkpt>
      <trkpt lat="48.71753" lon="7.16309">
        <ele>300.8</ele>
        <time>2023-09-23T16:09:01Z</time>
      </trkpt>
      <trkpt lat="48.71769" lon="7.16293">
        <ele>301.3</ele>
        <time>2023-09-23T16:09:07Z</time>
      </trkpt>
      <trkpt lat="48.71783" lon="7.16274">
        <ele>302.6</ele>
        <time>2023-09-23T16:09:14Z</time>
      </trkpt>
      <trkpt lat="48.7179" lon="7.16247">
        <ele>304.1</ele>
        <time>2023-09-23T16:09:22Z</time>
      </trkpt>
      <trkpt lat="48.71795" lon="7.1622">
        <ele>305.8</ele>
        <time>2023-09-23T16:09:30Z</time>
      </trkpt>
      <trkpt lat="48.71799" lon="7.16192">
        <ele>307.5</ele>
        <time>2023-09-23T16:09:37Z</time>
      </trkpt>
      <trkpt lat="48.71802" lon="7.16164">
        <ele>309.5</ele>
        <time>2023-09-23T16:09:44Z</time>
      </trkpt>
      <trkpt lat="48.71805" lon="7.16136">
        <ele>311.8</ele>
        <time>2023-09-23T16:09:51Z</time>
      </trkpt>
      <trkpt lat="48.71804" lon="7.16108">
        <ele>314.6</ele>
        <time>2023-09-23T16:09:59Z</time>
      </trkpt>
      <trkpt lat="48.7181" lon="7.1608">
        <ele>317.7</ele>
        <time>2023-09-23T16:10:08Z</time>
      </trkpt>
      <trkpt lat="48.71808" lon="7.16052">
        <ele>320.4</ele>
        <time>2023-09-23T16:10:17Z</time>
      </trkpt>
      <trkpt lat="48.71802" lon="7.16023">
        <ele>322.5</ele>
        <time>2023-09-23T16:10:25Z</time>
      </trkpt>
      <trkpt lat="48.71796" lon="7.15996">
        <ele>324.5</ele>
        <time>2023-09-23T16:10:32Z</time>
      </trkpt>
      <trkpt lat="48.7178" lon="7.15984">
        <ele>326.7</ele>
        <time>2023-09-23T16:10:40Z</time>
      </trkpt>
      <trkpt lat="48.7176" lon="7.1598">
        <ele>328.3</ele>
        <time>2023-09-23T16:10:49Z</time>
      </trkpt>
      <trkpt lat="48.71741" lon="7.1598">
        <ele>329.9</ele>
        <time>2023-09-23T16:10:57Z</time>
      </trkpt>
      <trkpt lat="48.71723" lon="7.15982">
        <ele>331.2</ele>
        <time>2023-09-23T16:11:03Z</time>
      </trkpt>
      <trkpt lat="48.71703" lon="7.15984">
        <ele>332.6</ele>
        <time>2023-09-23T16:11:10Z</time>
      </trkpt>
      <trkpt lat="48.71682" lon="7.15985">
        <ele>333.7</ele>
        <time>2023-09-23T16:11:17Z</time>
      </trkpt>
      <trkpt lat="48.71671" lon="7.15963">
        <ele>334.4</ele>
        <time>2023-09-23T16:11:23Z</time>
      </trkpt>
      <trkpt lat="48.71666" lon="7.15933">
        <ele>335</ele>
        <time>2023-09-23T16:11:29Z</time>
      </trkpt>
      <trkpt lat="48.71666" lon="7.15902">
        <ele>335.5</ele>
        <time>2023-09-23T16:11:35Z</time>
      </trkpt>
      <trkpt lat="48.71666" lon="7.15871">
        <ele>335.8</ele>
        <time>2023-09-23T16:11:41Z</time>
      </trkpt>
      <trkpt lat="48.71666" lon="7.1584">
        <ele>336.1</ele>
        <time>2023-09-23T16:11:47Z</time>
      </trkpt>
      <trkpt lat="48.71666" lon="7.1581">
        <ele>336.3</ele>
        <time>2023-09-23T16:11:53Z</time>
      </trkpt>
      <trkpt lat="48.71663" lon="7.15781">
        <ele>336.4</ele>
        <time>2023-09-23T16:11:59Z</time>
      </trkpt>
      <trkpt lat="48.71658" lon="7.15755">
        <ele>336.6</ele>
        <time>2023-09-23T16:12:04Z</time>
      </trkpt>
      <trkpt lat="48.71657" lon="7.15725">
        <ele>336.9</ele>
        <time>2023-09-23T16:12:10Z</time>
      </trkpt>
      <trkpt lat="48.71656" lon="7.15697">
        <ele>337.3</ele>
        <time>2023-09-23T16:12:16Z</time>
      </trkpt>
      <trkpt lat="48.71658" lon="7.15666">
        <ele>337.7</ele>
        <time>2023-09-23T16:12:22Z</time>
      </trkpt>
      <trkpt lat="48.71661" lon="7.15636">
        <ele>338.1</ele>
        <time>2023-09-23T16:12:28Z</time>
      </trkpt>
      <trkpt lat="48.71667" lon="7.15605">
        <ele>338.4</ele>
        <time>2023-09-23T16:12:34Z</time>
      </trkpt>
      <trkpt lat="48.71675" lon="7.15578">
        <ele>338.8</ele>
        <time>2023-09-23T16:12:40Z</time>
      </trkpt>
      <trkpt lat="48.71683" lon="7.15553">
        <ele>339.3</ele>
        <time>2023-09-23T16:12:46Z</time>
      </trkpt>
      <trkpt lat="48.71693" lon="7.15526">
        <ele>339.9</ele>
        <time>2023-09-23T16:12:52Z</time>
      </trkpt>
      <trkpt lat="48.71704" lon="7.155">
        <ele>340.5</ele>
        <time>2023-09-23T16:12:58Z</time>
      </trkpt>
      <trkpt lat="48.71716" lon="7.15476">
        <ele>341.3</ele>
        <time>2023-09-23T16:13:04Z</time>
      </trkpt>
      <trkpt lat="48.71727" lon="7.15452">
        <ele>342.1</ele>
        <time>2023-09-23T16:13:10Z</time>
      </trkpt>
      <trkpt lat="48.71738" lon="7.15429">
        <ele>343</ele>
        <time>2023-09-23T16:13:16Z</time>
      </trkpt>
      <trkpt lat="48.71748" lon="7.15406">
        <ele>343.8</ele>
        <time>2023-09-23T16:13:22Z</time>
      </trkpt>
      <trkpt lat="48.71759" lon="7.15381">
        <ele>344.5</ele>
        <time>2023-09-23T16:13:28Z</time>
      </trkpt>
      <trkpt lat="48.71769" lon="7.15356">
        <ele>345.2</ele>
        <time>2023-09-23T16:13:34Z</time>
      </trkpt>
      <trkpt lat="48.71779" lon="7.15331">
        <ele>345.7</ele>
        <time>2023-09-23T16:13:40Z</time>
      </trkpt>
      <trkpt lat="48.71789" lon="7.15306">
        <ele>345.9</ele>
        <time>2023-09-23T16:13:46Z</time>
      </trkpt>
      <trkpt lat="48.71786" lon="7.15277">
        <ele>346.3</ele>
        <time>2023-09-23T16:13:52Z</time>
      </trkpt>
      <trkpt lat="48.71775" lon="7.15249">
        <ele>346.6</ele>
        <time>2023-09-23T16:13:58Z</time>
      </trkpt>
      <trkpt lat="48.71761" lon="7.15226">
        <ele>346.8</ele>
        <time>2023-09-23T16:14:04Z</time>
      </trkpt>
      <trkpt lat="48.71751" lon="7.15198">
        <ele>346.8</ele>
        <time>2023-09-23T16:14:10Z</time>
      </trkpt>
      <trkpt lat="48.71744" lon="7.15169">
        <ele>347.1</ele>
        <time>2023-09-23T16:14:16Z</time>
      </trkpt>
      <trkpt lat="48.71738" lon="7.15141">
        <ele>347.4</ele>
        <time>2023-09-23T16:14:22Z</time>
      </trkpt>
      <trkpt lat="48.71733" lon="7.15113">
        <ele>347.5</ele>
        <time>2023-09-23T16:14:28Z</time>
      </trkpt>
      <trkpt lat="48.71727" lon="7.15082">
        <ele>347.7</ele>
        <time>2023-09-23T16:14:35Z</time>
      </trkpt>
      <trkpt lat="48.71723" lon="7.15052">
        <ele>348</ele>
        <time>2023-09-23T16:14:41Z</time>
      </trkpt>
      <trkpt lat="48.71718" lon="7.15023">
        <ele>348.2</ele>
        <time>2023-09-23T16:14:47Z</time>
      </trkpt>
      <trkpt lat="48.71712" lon="7.14992">
        <ele>348</ele>
        <time>2023-09-23T16:14:53Z</time>
      </trkpt>
      <trkpt lat="48.71707" lon="7.14962">
        <ele>348</ele>
        <time>2023-09-23T16:14:59Z</time>
      </trkpt>
      <trkpt lat="48.71706" lon="7.1493">
        <ele>348.4</ele>
        <time>2023-09-23T16:15:05Z</time>
      </trkpt>
      <trkpt lat="48.71702" lon="7.14902">
        <ele>348.6</ele>
        <time>2023-09-23T16:15:11Z</time>
      </trkpt>
      <trkpt lat="48.71697" lon="7.14873">
        <ele>348.8</ele>
        <time>2023-09-23T16:15:17Z</time>
      </trkpt>
      <trkpt lat="48.71687" lon="7.14846">
        <ele>348.7</ele>
        <time>2023-09-23T16:15:23Z</time>
      </trkpt>
      <trkpt lat="48.71669" lon="7.14846">
        <ele>348.1</ele>
        <time>2023-09-23T16:15:30Z</time>
      </trkpt>
      <trkpt lat="48.71651" lon="7.14852">
        <ele>348</ele>
        <time>2023-09-23T16:15:38Z</time>
      </trkpt>
      <trkpt lat="48.71632" lon="7.1486">
        <ele>348</ele>
        <time>2023-09-23T16:15:46Z</time>
      </trkpt>
      <trkpt lat="48.71613" lon="7.14868">
        <ele>348</ele>
        <time>2023-09-23T16:15:53Z</time>
      </trkpt>
      <trkpt lat="48.71595" lon="7.14878">
        <ele>348.1</ele>
        <time>2023-09-23T16:16:00Z</time>
      </trkpt>
      <trkpt lat="48.71576" lon="7.14884">
        <ele>348</ele>
        <time>2023-09-23T16:16:06Z</time>
      </trkpt>
      <trkpt lat="48.71556" lon="7.1489">
        <ele>348.1</ele>
        <time>2023-09-23T16:16:12Z</time>
      </trkpt>
      <trkpt lat="48.71536" lon="7.14896">
        <ele>348.1</ele>
        <time>2023-09-23T16:16:18Z</time>
      </trkpt>
      <trkpt lat="48.71516" lon="7.14902">
        <ele>348.3</ele>
        <time>2023-09-23T16:16:23Z</time>
      </trkpt>
      <trkpt lat="48.71495" lon="7.1491">
        <ele>348.5</ele>
        <time>2023-09-23T16:16:28Z</time>
      </trkpt>
      <trkpt lat="48.71475" lon="7.14917">
        <ele>348.4</ele>
        <time>2023-09-23T16:16:33Z</time>
      </trkpt>
      <trkpt lat="48.71455" lon="7.14923">
        <ele>348.2</ele>
        <time>2023-09-23T16:16:38Z</time>
      </trkpt>
      <trkpt lat="48.71435" lon="7.1493">
        <ele>348</ele>
        <time>2023-09-23T16:16:43Z</time>
      </trkpt>
      <trkpt lat="48.71414" lon="7.14939">
        <ele>347.7</ele>
        <time>2023-09-23T16:16:48Z</time>
      </trkpt>
      <trkpt lat="48.71395" lon="7.14946">
        <ele>347.6</ele>
        <time>2023-09-23T16:16:52Z</time>
      </trkpt>
      <trkpt lat="48.71375" lon="7.14955">
        <ele>347.2</ele>
        <time>2023-09-23T16:16:56Z</time>
      </trkpt>
      <trkpt lat="48.71356" lon="7.1496">
        <ele>346.6</ele>
        <time>2023-09-23T16:17:00Z</time>
      </trkpt>
      <trkpt lat="48.71336" lon="7.14967">
        <ele>346.1</ele>
        <time>2023-09-23T16:17:06Z</time>
      </trkpt>
      <trkpt lat="48.71319" lon="7.14975">
        <ele>345.6</ele>
        <time>2023-09-23T16:17:11Z</time>
      </trkpt>
      <trkpt lat="48.71299" lon="7.14979">
        <ele>344.8</ele>
        <time>2023-09-23T16:17:16Z</time>
      </trkpt>
      <trkpt lat="48.71279" lon="7.14986">
        <ele>344</ele>
        <time>2023-09-23T16:17:22Z</time>
      </trkpt>
      <trkpt lat="48.7126" lon="7.14993">
        <ele>343.3</ele>
        <time>2023-09-23T16:17:28Z</time>
      </trkpt>
      <trkpt lat="48.7124" lon="7.15">
        <ele>342.8</ele>
        <time>2023-09-23T16:17:35Z</time>
      </trkpt>
      <trkpt lat="48.71221" lon="7.15007">
        <ele>342.2</ele>
        <time>2023-09-23T16:17:41Z</time>
      </trkpt>
      <trkpt lat="48.71202" lon="7.15015">
        <ele>341.9</ele>
        <time>2023-09-23T16:17:47Z</time>
      </trkpt>
      <trkpt lat="48.71183" lon="7.15019">
        <ele>342.1</ele>
        <time>2023-09-23T16:17:54Z</time>
      </trkpt>
      <trkpt lat="48.71183" lon="7.15018">
        <ele>342</ele>
        <time>2023-09-23T16:17:57Z</time>
      </trkpt>
      <trkpt lat="48.71194" lon="7.15023">
        <ele>342.1</ele>
        <time>2023-09-23T16:18:03Z</time>
      </trkpt>
      <trkpt lat="48.71194" lon="7.15051">
        <ele>341.6</ele>
        <time>2023-09-23T16:18:11Z</time>
      </trkpt>
      <trkpt lat="48.71197" lon="7.15079">
        <ele>340.8</ele>
        <time>2023-09-23T16:18:17Z</time>
      </trkpt>
      <trkpt lat="48.71201" lon="7.15106">
        <ele>340.5</ele>
        <time>2023-09-23T16:18:23Z</time>
      </trkpt>
      <trkpt lat="48.71201" lon="7.15133">
        <ele>341.1</ele>
        <time>2023-09-23T16:18:30Z</time>
      </trkpt>
      <trkpt lat="48.71204" lon="7.15164">
        <ele>342</ele>
        <time>2023-09-23T16:18:37Z</time>
      </trkpt>
      <trkpt lat="48.71207" lon="7.15193">
        <ele>342.7</ele>
        <time>2023-09-23T16:18:43Z</time>
      </trkpt>
      <trkpt lat="48.71211" lon="7.15222">
        <ele>343.4</ele>
        <time>2023-09-23T16:18:49Z</time>
      </trkpt>
      <trkpt lat="48.71218" lon="7.15249">
        <ele>344.2</ele>
        <time>2023-09-23T16:18:55Z</time>
      </trkpt>
      <trkpt lat="48.71229" lon="7.15277">
        <ele>345.1</ele>
        <time>2023-09-23T16:19:01Z</time>
      </trkpt>
      <trkpt lat="48.71233" lon="7.15304">
        <ele>345.9</ele>
        <time>2023-09-23T16:19:07Z</time>
      </trkpt>
      <trkpt lat="48.71237" lon="7.15332">
        <ele>346.6</ele>
        <time>2023-09-23T16:19:13Z</time>
      </trkpt>
      <trkpt lat="48.71244" lon="7.15358">
        <ele>346.9</ele>
        <time>2023-09-23T16:19:19Z</time>
      </trkpt>
      <trkpt lat="48.7125" lon="7.15382">
        <ele>346.8</ele>
        <time>2023-09-23T16:19:25Z</time>
      </trkpt>
      <trkpt lat="48.71232" lon="7.15391">
        <ele>347.2</ele>
        <time>2023-09-23T16:19:36Z</time>
      </trkpt>
      <trkpt lat="48.71213" lon="7.15384">
        <ele>347.4</ele>
        <time>2023-09-23T16:19:45Z</time>
      </trkpt>
      <trkpt lat="48.71193" lon="7.15384">
        <ele>347.3</ele>
        <time>2023-09-23T16:19:52Z</time>
      </trkpt>
      <trkpt lat="48.71173" lon="7.15381">
        <ele>347.2</ele>
        <time>2023-09-23T16:19:59Z</time>
      </trkpt>
      <trkpt lat="48.71153" lon="7.15374">
        <ele>347.2</ele>
        <time>2023-09-23T16:20:06Z</time>
      </trkpt>
      <trkpt lat="48.71135" lon="7.15366">
        <ele>347.3</ele>
        <time>2023-09-23T16:20:12Z</time>
      </trkpt>
      <trkpt lat="48.71116" lon="7.15354">
        <ele>347.3</ele>
        <time>2023-09-23T16:20:19Z</time>
      </trkpt>
      <trkpt lat="48.71097" lon="7.1534">
        <ele>347.4</ele>
        <time>2023-09-23T16:20:25Z</time>
      </trkpt>
      <trkpt lat="48.7108" lon="7.1533">
        <ele>347.3</ele>
        <time>2023-09-23T16:20:30Z</time>
      </trkpt>
      <trkpt lat="48.7107" lon="7.15307">
        <ele>346.7</ele>
        <time>2023-09-23T16:20:36Z</time>
      </trkpt>
      <trkpt lat="48.71072" lon="7.15277">
        <ele>345.9</ele>
        <time>2023-09-23T16:20:41Z</time>
      </trkpt>
      <trkpt lat="48.71077" lon="7.15251">
        <ele>345.3</ele>
        <time>2023-09-23T16:20:45Z</time>
      </trkpt>
      <trkpt lat="48.71081" lon="7.15219">
        <ele>344.4</ele>
        <time>2023-09-23T16:20:50Z</time>
      </trkpt>
      <trkpt lat="48.71084" lon="7.15188">
        <ele>343.1</ele>
        <time>2023-09-23T16:20:55Z</time>
      </trkpt>
      <trkpt lat="48.71085" lon="7.15154">
        <ele>342.3</ele>
        <time>2023-09-23T16:21:00Z</time>
      </trkpt>
      <trkpt lat="48.71086" lon="7.15122">
        <ele>341.6</ele>
        <time>2023-09-23T16:21:05Z</time>
      </trkpt>
      <trkpt lat="48.71088" lon="7.15091">
        <ele>341.2</ele>
        <time>2023-09-23T16:21:09Z</time>
      </trkpt>
      <trkpt lat="48.71092" lon="7.15062">
        <ele>340.9</ele>
        <time>2023-09-23T16:21:13Z</time>
      </trkpt>
      <trkpt lat="48.71094" lon="7.15031">
        <ele>340.7</ele>
        <time>2023-09-23T16:21:17Z</time>
      </trkpt>
      <trkpt lat="48.71095" lon="7.15">
        <ele>340.1</ele>
        <time>2023-09-23T16:21:21Z</time>
      </trkpt>
      <trkpt lat="48.71094" lon="7.14994">
        <ele>339.8</ele>
        <time>2023-09-23T16:21:22Z</time>
      </trkpt>
      <trkpt lat="48.71091" lon="7.14988">
        <ele>339.6</ele>
        <time>2023-09-23T16:21:24Z</time>
      </trkpt>
      <trkpt lat="48.71072" lon="7.14981">
        <ele>339.2</ele>
        <time>2023-09-23T16:21:32Z</time>
      </trkpt>
      <trkpt lat="48.71054" lon="7.14976">
        <ele>339.2</ele>
        <time>2023-09-23T16:21:39Z</time>
      </trkpt>
      <trkpt lat="48.71035" lon="7.14969">
        <ele>339.2</ele>
        <time>2023-09-23T16:21:46Z</time>
      </trkpt>
      <trkpt lat="48.71018" lon="7.14959">
        <ele>339.5</ele>
        <time>2023-09-23T16:21:53Z</time>
      </trkpt>
      <trkpt lat="48.71015" lon="7.14963">
        <ele>339.5</ele>
        <time>2023-09-23T16:21:55Z</time>
      </trkpt>
      <trkpt lat="48.71009" lon="7.14988">
        <ele>339.7</ele>
        <time>2023-09-23T16:22:01Z</time>
      </trkpt>
      <trkpt lat="48.71003" lon="7.15016">
        <ele>340.2</ele>
        <time>2023-09-23T16:22:07Z</time>
      </trkpt>
      <trkpt lat="48.70997" lon="7.15043">
        <ele>340.8</ele>
        <time>2023-09-23T16:22:13Z</time>
      </trkpt>
      <trkpt lat="48.70991" lon="7.1507">
        <ele>341.6</ele>
        <time>2023-09-23T16:22:19Z</time>
      </trkpt>
      <trkpt lat="48.70984" lon="7.151">
        <ele>342.6</ele>
        <time>2023-09-23T16:22:26Z</time>
      </trkpt>
      <trkpt lat="48.70977" lon="7.15129">
        <ele>343.7</ele>
        <time>2023-09-23T16:22:33Z</time>
      </trkpt>
      <trkpt lat="48.70972" lon="7.1516">
        <ele>344.6</ele>
        <time>2023-09-23T16:22:40Z</time>
      </trkpt>
      <trkpt lat="48.70969" lon="7.15187">
        <ele>345.4</ele>
        <time>2023-09-23T16:22:46Z</time>
      </trkpt>
      <trkpt lat="48.70966" lon="7.15214">
        <ele>346.2</ele>
        <time>2023-09-23T16:22:52Z</time>
      </trkpt>
      <trkpt lat="48.70964" lon="7.15246">
        <ele>346.8</ele>
        <time>2023-09-23T16:22:59Z</time>
      </trkpt>
      <trkpt lat="48.70962" lon="7.15274">
        <ele>347.2</ele>
        <time>2023-09-23T16:23:05Z</time>
      </trkpt>
      <trkpt lat="48.7096" lon="7.15302">
        <ele>347.7</ele>
        <time>2023-09-23T16:23:11Z</time>
      </trkpt>
      <trkpt lat="48.7096" lon="7.15329">
        <ele>348.3</ele>
        <time>2023-09-23T16:23:17Z</time>
      </trkpt>
      <trkpt lat="48.70958" lon="7.15357">
        <ele>349</ele>
        <time>2023-09-23T16:23:23Z</time>
      </trkpt>
      <trkpt lat="48.70958" lon="7.15389">
        <ele>350.2</ele>
        <time>2023-09-23T16:23:30Z</time>
      </trkpt>
      <trkpt lat="48.70956" lon="7.15416">
        <ele>350.8</ele>
        <time>2023-09-23T16:23:36Z</time>
      </trkpt>
      <trkpt lat="48.70954" lon="7.15443">
        <ele>350.6</ele>
        <time>2023-09-23T16:23:42Z</time>
      </trkpt>
      <trkpt lat="48.70955" lon="7.15472">
        <ele>349.9</ele>
        <time>2023-09-23T16:23:48Z</time>
      </trkpt>
      <trkpt lat="48.70956" lon="7.15502">
        <ele>349</ele>
        <time>2023-09-23T16:23:54Z</time>
      </trkpt>
      <trkpt lat="48.70959" lon="7.1553">
        <ele>348.1</ele>
        <time>2023-09-23T16:24:00Z</time>
      </trkpt>
      <trkpt lat="48.70959" lon="7.15558">
        <ele>347.2</ele>
        <time>2023-09-23T16:24:06Z</time>
      </trkpt>
      <trkpt lat="48.70959" lon="7.15587">
        <ele>346.3</ele>
        <time>2023-09-23T16:24:12Z</time>
      </trkpt>
      <trkpt lat="48.7096" lon="7.15616">
        <ele>345.1</ele>
        <time>2023-09-23T16:24:19Z</time>
      </trkpt>
      <trkpt lat="48.70961" lon="7.15648">
        <ele>343.7</ele>
        <time>2023-09-23T16:24:26Z</time>
      </trkpt>
      <trkpt lat="48.7096" lon="7.15676">
        <ele>342.2</ele>
        <time>2023-09-23T16:24:32Z</time>
      </trkpt>
      <trkpt lat="48.70952" lon="7.15685">
        <ele>342.5</ele>
        <time>2023-09-23T16:24:35Z</time>
      </trkpt>
      <trkpt lat="48.70933" lon="7.15673">
        <ele>343.6</ele>
        <time>2023-09-23T16:24:41Z</time>
      </trkpt>
      <trkpt lat="48.70915" lon="7.1566">
        <ele>344.9</ele>
        <time>2023-09-23T16:24:47Z</time>
      </trkpt>
      <trkpt lat="48.70898" lon="7.15644">
        <ele>346</ele>
        <time>2023-09-23T16:24:54Z</time>
      </trkpt>
      <trkpt lat="48.70881" lon="7.15627">
        <ele>346.9</ele>
        <time>2023-09-23T16:25:01Z</time>
      </trkpt>
      <trkpt lat="48.70862" lon="7.15614">
        <ele>347.7</ele>
        <time>2023-09-23T16:25:07Z</time>
      </trkpt>
      <trkpt lat="48.70844" lon="7.156">
        <ele>348.4</ele>
        <time>2023-09-23T16:25:12Z</time>
      </trkpt>
      <trkpt lat="48.70824" lon="7.15583">
        <ele>349.1</ele>
        <time>2023-09-23T16:25:17Z</time>
      </trkpt>
      <trkpt lat="48.70808" lon="7.15562">
        <ele>349.9</ele>
        <time>2023-09-23T16:25:22Z</time>
      </trkpt>
      <trkpt lat="48.7079" lon="7.15543">
        <ele>350.6</ele>
        <time>2023-09-23T16:25:27Z</time>
      </trkpt>
      <trkpt lat="48.70772" lon="7.15524">
        <ele>351.3</ele>
        <time>2023-09-23T16:25:32Z</time>
      </trkpt>
      <trkpt lat="48.70757" lon="7.15508">
        <ele>352</ele>
        <time>2023-09-23T16:25:36Z</time>
      </trkpt>
      <trkpt lat="48.7074" lon="7.15487">
        <ele>352.7</ele>
        <time>2023-09-23T16:25:41Z</time>
      </trkpt>
      <trkpt lat="48.70722" lon="7.15469">
        <ele>353.7</ele>
        <time>2023-09-23T16:25:46Z</time>
      </trkpt>
      <trkpt lat="48.70703" lon="7.15455">
        <ele>354.8</ele>
        <time>2023-09-23T16:25:51Z</time>
      </trkpt>
      <trkpt lat="48.70683" lon="7.15444">
        <ele>355.7</ele>
        <time>2023-09-23T16:25:56Z</time>
      </trkpt>
      <trkpt lat="48.70666" lon="7.15435">
        <ele>356.2</ele>
        <time>2023-09-23T16:26:00Z</time>
      </trkpt>
      <trkpt lat="48.70648" lon="7.15426">
        <ele>356.5</ele>
        <time>2023-09-23T16:26:04Z</time>
      </trkpt>
      <trkpt lat="48.70627" lon="7.15418">
        <ele>356.7</ele>
        <time>2023-09-23T16:26:09Z</time>
      </trkpt>
      <trkpt lat="48.70618" lon="7.15415">
        <ele>356.9</ele>
        <time>2023-09-23T16:26:11Z</time>
      </trkpt>
      <trkpt lat="48.70597" lon="7.15404">
        <ele>357.2</ele>
        <time>2023-09-23T16:26:16Z</time>
      </trkpt>
      <trkpt lat="48.7058" lon="7.15396">
        <ele>357.4</ele>
        <time>2023-09-23T16:26:20Z</time>
      </trkpt>
      <trkpt lat="48.70562" lon="7.15388">
        <ele>357.5</ele>
        <time>2023-09-23T16:26:25Z</time>
      </trkpt>
      <trkpt lat="48.70543" lon="7.15378">
        <ele>357.8</ele>
        <time>2023-09-23T16:26:32Z</time>
      </trkpt>
      <trkpt lat="48.70525" lon="7.15365">
        <ele>358.1</ele>
        <time>2023-09-23T16:26:39Z</time>
      </trkpt>
      <trkpt lat="48.70507" lon="7.15347">
        <ele>358.4</ele>
        <time>2023-09-23T16:26:46Z</time>
      </trkpt>
      <trkpt lat="48.7049" lon="7.15333">
        <ele>358.8</ele>
        <time>2023-09-23T16:26:53Z</time>
      </trkpt>
      <trkpt lat="48.70473" lon="7.15317">
        <ele>359</ele>
        <time>2023-09-23T16:27:00Z</time>
      </trkpt>
      <trkpt lat="48.70455" lon="7.15302">
        <ele>359.1</ele>
        <time>2023-09-23T16:27:07Z</time>
      </trkpt>
      <trkpt lat="48.70437" lon="7.15294">
        <ele>359.3</ele>
        <time>2023-09-23T16:27:13Z</time>
      </trkpt>
      <trkpt lat="48.7042" lon="7.15286">
        <ele>359.3</ele>
        <time>2023-09-23T16:27:19Z</time>
      </trkpt>
      <trkpt lat="48.704" lon="7.15277">
        <ele>359.2</ele>
        <time>2023-09-23T16:27:26Z</time>
      </trkpt>
      <trkpt lat="48.70383" lon="7.15269">
        <ele>359.2</ele>
        <time>2023-09-23T16:27:32Z</time>
      </trkpt>
      <trkpt lat="48.70365" lon="7.15261">
        <ele>359.3</ele>
        <time>2023-09-23T16:27:38Z</time>
      </trkpt>
      <trkpt lat="48.70346" lon="7.15253">
        <ele>359.5</ele>
        <time>2023-09-23T16:27:44Z</time>
      </trkpt>
      <trkpt lat="48.70329" lon="7.1524">
        <ele>359.4</ele>
        <time>2023-09-23T16:27:50Z</time>
      </trkpt>
      <trkpt lat="48.70312" lon="7.15225">
        <ele>359.2</ele>
        <time>2023-09-23T16:27:56Z</time>
      </trkpt>
      <trkpt lat="48.70293" lon="7.15217">
        <ele>359.3</ele>
        <time>2023-09-23T16:28:02Z</time>
      </trkpt>
      <trkpt lat="48.70274" lon="7.15225">
        <ele>359.5</ele>
        <time>2023-09-23T16:28:09Z</time>
      </trkpt>
      <trkpt lat="48.70259" lon="7.1524">
        <ele>359.6</ele>
        <time>2023-09-23T16:28:15Z</time>
      </trkpt>
      <trkpt lat="48.70246" lon="7.1526">
        <ele>359.8</ele>
        <time>2023-09-23T16:28:21Z</time>
      </trkpt>
      <trkpt lat="48.70234" lon="7.15282">
        <ele>360.1</ele>
        <time>2023-09-23T16:28:27Z</time>
      </trkpt>
      <trkpt lat="48.70222" lon="7.15304">
        <ele>360.6</ele>
        <time>2023-09-23T16:28:33Z</time>
      </trkpt>
      <trkpt lat="48.70211" lon="7.15327">
        <ele>361.2</ele>
        <time>2023-09-23T16:28:39Z</time>
      </trkpt>
      <trkpt lat="48.7021" lon="7.15354">
        <ele>361.7</ele>
        <time>2023-09-23T16:28:45Z</time>
      </trkpt>
      <trkpt lat="48.70213" lon="7.15384">
        <ele>362.6</ele>
        <time>2023-09-23T16:28:52Z</time>
      </trkpt>
      <trkpt lat="48.70217" lon="7.15413">
        <ele>363</ele>
        <time>2023-09-23T16:28:58Z</time>
      </trkpt>
      <trkpt lat="48.70219" lon="7.1544">
        <ele>362.8</ele>
        <time>2023-09-23T16:29:04Z</time>
      </trkpt>
      <trkpt lat="48.70222" lon="7.15468">
        <ele>362.6</ele>
        <time>2023-09-23T16:29:10Z</time>
      </trkpt>
      <trkpt lat="48.70224" lon="7.15495">
        <ele>362.1</ele>
        <time>2023-09-23T16:29:16Z</time>
      </trkpt>
      <trkpt lat="48.70226" lon="7.15524">
        <ele>361.4</ele>
        <time>2023-09-23T16:29:23Z</time>
      </trkpt>
      <trkpt lat="48.70227" lon="7.15554">
        <ele>360.4</ele>
        <time>2023-09-23T16:29:30Z</time>
      </trkpt>
      <trkpt lat="48.70228" lon="7.15585">
        <ele>359.2</ele>
        <time>2023-09-23T16:29:37Z</time>
      </trkpt>
      <trkpt lat="48.70228" lon="7.15616">
        <ele>357.8</ele>
        <time>2023-09-23T16:29:44Z</time>
      </trkpt>
      <trkpt lat="48.70228" lon="7.15643">
        <ele>356.5</ele>
        <time>2023-09-23T16:29:50Z</time>
      </trkpt>
      <trkpt lat="48.70228" lon="7.15673">
        <ele>355.1</ele>
        <time>2023-09-23T16:29:56Z</time>
      </trkpt>
      <trkpt lat="48.70228" lon="7.15705">
        <ele>353.8</ele>
        <time>2023-09-23T16:30:02Z</time>
      </trkpt>
      <trkpt lat="48.70227" lon="7.15733">
        <ele>352.7</ele>
        <time>2023-09-23T16:30:08Z</time>
      </trkpt>
      <trkpt lat="48.70226" lon="7.15762">
        <ele>351.7</ele>
        <time>2023-09-23T16:30:14Z</time>
      </trkpt>
      <trkpt lat="48.70226" lon="7.15791">
        <ele>351</ele>
        <time>2023-09-23T16:30:20Z</time>
      </trkpt>
      <trkpt lat="48.70225" lon="7.15819">
        <ele>350.7</ele>
        <time>2023-09-23T16:30:26Z</time>
      </trkpt>
      <trkpt lat="48.70224" lon="7.15848">
        <ele>350.6</ele>
        <time>2023-09-23T16:30:32Z</time>
      </trkpt>
      <trkpt lat="48.70222" lon="7.15877">
        <ele>350.6</ele>
        <time>2023-09-23T16:30:38Z</time>
      </trkpt>
      <trkpt lat="48.7022" lon="7.15908">
        <ele>350.7</ele>
        <time>2023-09-23T16:30:45Z</time>
      </trkpt>
      <trkpt lat="48.70219" lon="7.15935">
        <ele>351</ele>
        <time>2023-09-23T16:30:51Z</time>
      </trkpt>
      <trkpt lat="48.70216" lon="7.15963">
        <ele>351.2</ele>
        <time>2023-09-23T16:30:57Z</time>
      </trkpt>
      <trkpt lat="48.70213" lon="7.15991">
        <ele>351.6</ele>
        <time>2023-09-23T16:31:03Z</time>
      </trkpt>
      <trkpt lat="48.70215" lon="7.1602">
        <ele>352.1</ele>
        <time>2023-09-23T16:31:09Z</time>
      </trkpt>
      <trkpt lat="48.70228" lon="7.16036">
        <ele>352.3</ele>
        <time>2023-09-23T16:31:18Z</time>
      </trkpt>
      <trkpt lat="48.7023" lon="7.16038">
        <ele>352.4</ele>
        <time>2023-09-23T16:31:20Z</time>
      </trkpt>
      <trkpt lat="48.70223" lon="7.16066">
        <ele>353</ele>
        <time>2023-09-23T16:31:27Z</time>
      </trkpt>
      <trkpt lat="48.70213" lon="7.16091">
        <ele>353.5</ele>
        <time>2023-09-23T16:31:33Z</time>
      </trkpt>
      <trkpt lat="48.70201" lon="7.16115">
        <ele>353.7</ele>
        <time>2023-09-23T16:31:40Z</time>
      </trkpt>
      <trkpt lat="48.70192" lon="7.16142">
        <ele>354.6</ele>
        <time>2023-09-23T16:31:47Z</time>
      </trkpt>
      <trkpt lat="48.70182" lon="7.16169">
        <ele>355.3</ele>
        <time>2023-09-23T16:31:54Z</time>
      </trkpt>
      <trkpt lat="48.70173" lon="7.16193">
        <ele>355.9</ele>
        <time>2023-09-23T16:32:00Z</time>
      </trkpt>
      <trkpt lat="48.70163" lon="7.16216">
        <ele>356.5</ele>
        <time>2023-09-23T16:32:06Z</time>
      </trkpt>
      <trkpt lat="48.70155" lon="7.16242">
        <ele>357.3</ele>
        <time>2023-09-23T16:32:13Z</time>
      </trkpt>
      <trkpt lat="48.70143" lon="7.16267">
        <ele>358</ele>
        <time>2023-09-23T16:32:20Z</time>
      </trkpt>
      <trkpt lat="48.70137" lon="7.16294">
        <ele>358.7</ele>
        <time>2023-09-23T16:32:27Z</time>
      </trkpt>
      <trkpt lat="48.70132" lon="7.16322">
        <ele>359.3</ele>
        <time>2023-09-23T16:32:34Z</time>
      </trkpt>
      <trkpt lat="48.70126" lon="7.16349">
        <ele>359.6</ele>
        <time>2023-09-23T16:32:41Z</time>
      </trkpt>
      <trkpt lat="48.7012" lon="7.16377">
        <ele>360.2</ele>
        <time>2023-09-23T16:32:48Z</time>
      </trkpt>
      <trkpt lat="48.70129" lon="7.16399">
        <ele>361</ele>
        <time>2023-09-23T16:32:55Z</time>
      </trkpt>
      <trkpt lat="48.70147" lon="7.16416">
        <ele>361.2</ele>
        <time>2023-09-23T16:33:02Z</time>
      </trkpt>
      <trkpt lat="48.70163" lon="7.16437">
        <ele>361.5</ele>
        <time>2023-09-23T16:33:09Z</time>
      </trkpt>
      <trkpt lat="48.70178" lon="7.16457">
        <ele>361</ele>
        <time>2023-09-23T16:33:15Z</time>
      </trkpt>
      <trkpt lat="48.70194" lon="7.16474">
        <ele>360.9</ele>
        <time>2023-09-23T16:33:21Z</time>
      </trkpt>
      <trkpt lat="48.7021" lon="7.16488">
        <ele>361</ele>
        <time>2023-09-23T16:33:27Z</time>
      </trkpt>
      <trkpt lat="48.70226" lon="7.16506">
        <ele>360</ele>
        <time>2023-09-23T16:33:33Z</time>
      </trkpt>
      <trkpt lat="48.70242" lon="7.16527">
        <ele>359.6</ele>
        <time>2023-09-23T16:33:39Z</time>
      </trkpt>
      <trkpt lat="48.70256" lon="7.1655">
        <ele>359.8</ele>
        <time>2023-09-23T16:33:45Z</time>
      </trkpt>
      <trkpt lat="48.70269" lon="7.16571">
        <ele>360.1</ele>
        <time>2023-09-23T16:33:51Z</time>
      </trkpt>
      <trkpt lat="48.70282" lon="7.16593">
        <ele>359.9</ele>
        <time>2023-09-23T16:33:57Z</time>
      </trkpt>
      <trkpt lat="48.70294" lon="7.16617">
        <ele>358.7</ele>
        <time>2023-09-23T16:34:03Z</time>
      </trkpt>
      <trkpt lat="48.70307" lon="7.16641">
        <ele>358.7</ele>
        <time>2023-09-23T16:34:09Z</time>
      </trkpt>
      <trkpt lat="48.70319" lon="7.16664">
        <ele>358.9</ele>
        <time>2023-09-23T16:34:15Z</time>
      </trkpt>
      <trkpt lat="48.70332" lon="7.16688">
        <ele>358.6</ele>
        <time>2023-09-23T16:34:21Z</time>
      </trkpt>
      <trkpt lat="48.70338" lon="7.16713">
        <ele>358.1</ele>
        <time>2023-09-23T16:34:27Z</time>
      </trkpt>
      <trkpt lat="48.70334" lon="7.16742">
        <ele>358.2</ele>
        <time>2023-09-23T16:34:34Z</time>
      </trkpt>
      <trkpt lat="48.70343" lon="7.16767">
        <ele>357.6</ele>
        <time>2023-09-23T16:34:41Z</time>
      </trkpt>
      <trkpt lat="48.70358" lon="7.16782">
        <ele>357.1</ele>
        <time>2023-09-23T16:34:47Z</time>
      </trkpt>
      <trkpt lat="48.70375" lon="7.1679">
        <ele>356.4</ele>
        <time>2023-09-23T16:34:53Z</time>
      </trkpt>
      <trkpt lat="48.70391" lon="7.1681">
        <ele>354.9</ele>
        <time>2023-09-23T16:35:00Z</time>
      </trkpt>
      <trkpt lat="48.70406" lon="7.1683">
        <ele>353.7</ele>
        <time>2023-09-23T16:35:06Z</time>
      </trkpt>
      <trkpt lat="48.70412" lon="7.1683">
        <ele>353.7</ele>
        <time>2023-09-23T16:35:08Z</time>
      </trkpt>
      <trkpt lat="48.70426" lon="7.16814">
        <ele>353.7</ele>
        <time>2023-09-23T16:35:14Z</time>
      </trkpt>
      <trkpt lat="48.70442" lon="7.16791">
        <ele>353.9</ele>
        <time>2023-09-23T16:35:20Z</time>
      </trkpt>
      <trkpt lat="48.70455" lon="7.1677">
        <ele>354.4</ele>
        <time>2023-09-23T16:35:26Z</time>
      </trkpt>
      <trkpt lat="48.70469" lon="7.1675">
        <ele>355</ele>
        <time>2023-09-23T16:35:32Z</time>
      </trkpt>
      <trkpt lat="48.70483" lon="7.1673">
        <ele>355.7</ele>
        <time>2023-09-23T16:35:38Z</time>
      </trkpt>
      <trkpt lat="48.70495" lon="7.16707">
        <ele>356.2</ele>
        <time>2023-09-23T16:35:44Z</time>
      </trkpt>
      <trkpt lat="48.70507" lon="7.16683">
        <ele>356.5</ele>
        <time>2023-09-23T16:35:50Z</time>
      </trkpt>
      <trkpt lat="48.70518" lon="7.16659">
        <ele>356.6</ele>
        <time>2023-09-23T16:35:56Z</time>
      </trkpt>
      <trkpt lat="48.70531" lon="7.16636">
        <ele>356</ele>
        <time>2023-09-23T16:36:02Z</time>
      </trkpt>
      <trkpt lat="48.70544" lon="7.16612">
        <ele>355.5</ele>
        <time>2023-09-23T16:36:08Z</time>
      </trkpt>
      <trkpt lat="48.70557" lon="7.1659">
        <ele>354.7</ele>
        <time>2023-09-23T16:36:14Z</time>
      </trkpt>
      <trkpt lat="48.70571" lon="7.16568">
        <ele>353.8</ele>
        <time>2023-09-23T16:36:20Z</time>
      </trkpt>
      <trkpt lat="48.70585" lon="7.16546">
        <ele>353</ele>
        <time>2023-09-23T16:36:26Z</time>
      </trkpt>
      <trkpt lat="48.70599" lon="7.16525">
        <ele>352.1</ele>
        <time>2023-09-23T16:36:32Z</time>
      </trkpt>
      <trkpt lat="48.70613" lon="7.16503">
        <ele>351.2</ele>
        <time>2023-09-23T16:36:38Z</time>
      </trkpt>
      <trkpt lat="48.70624" lon="7.1648">
        <ele>350.1</ele>
        <time>2023-09-23T16:36:43Z</time>
      </trkpt>
      <trkpt lat="48.70635" lon="7.16458">
        <ele>349.2</ele>
        <time>2023-09-23T16:36:48Z</time>
      </trkpt>
      <trkpt lat="48.7065" lon="7.16435">
        <ele>348.4</ele>
        <time>2023-09-23T16:36:54Z</time>
      </trkpt>
      <trkpt lat="48.70663" lon="7.16413">
        <ele>347.3</ele>
        <time>2023-09-23T16:37:00Z</time>
      </trkpt>
      <trkpt lat="48.70675" lon="7.16389">
        <ele>345.7</ele>
        <time>2023-09-23T16:37:06Z</time>
      </trkpt>
      <trkpt lat="48.70688" lon="7.16364">
        <ele>343.8</ele>
        <time>2023-09-23T16:37:12Z</time>
      </trkpt>
      <trkpt lat="48.70701" lon="7.16339">
        <ele>342</ele>
        <time>2023-09-23T16:37:18Z</time>
      </trkpt>
      <trkpt lat="48.70713" lon="7.16316">
        <ele>340.2</ele>
        <time>2023-09-23T16:37:24Z</time>
      </trkpt>
      <trkpt lat="48.70726" lon="7.16294">
        <ele>338.5</ele>
        <time>2023-09-23T16:37:30Z</time>
      </trkpt>
      <trkpt lat="48.70739" lon="7.16274">
        <ele>336.8</ele>
        <time>2023-09-23T16:37:36Z</time>
      </trkpt>
      <trkpt lat="48.70753" lon="7.16255">
        <ele>334.9</ele>
        <time>2023-09-23T16:37:42Z</time>
      </trkpt>
      <trkpt lat="48.70766" lon="7.16236">
        <ele>333.1</ele>
        <time>2023-09-23T16:37:48Z</time>
      </trkpt>
      <trkpt lat="48.70778" lon="7.16213">
        <ele>331.2</ele>
        <time>2023-09-23T16:37:54Z</time>
      </trkpt>
      <trkpt lat="48.70791" lon="7.16191">
        <ele>329.6</ele>
        <time>2023-09-23T16:38:00Z</time>
      </trkpt>
      <trkpt lat="48.70803" lon="7.16169">
        <ele>328</ele>
        <time>2023-09-23T16:38:06Z</time>
      </trkpt>
      <trkpt lat="48.70817" lon="7.16149">
        <ele>326.4</ele>
        <time>2023-09-23T16:38:12Z</time>
      </trkpt>
      <trkpt lat="48.70832" lon="7.16128">
        <ele>324.6</ele>
        <time>2023-09-23T16:38:18Z</time>
      </trkpt>
      <trkpt lat="48.70853" lon="7.16128">
        <ele>323.7</ele>
        <time>2023-09-23T16:38:24Z</time>
      </trkpt>
      <trkpt lat="48.70874" lon="7.16132">
        <ele>322.9</ele>
        <time>2023-09-23T16:38:30Z</time>
      </trkpt>
      <trkpt lat="48.70892" lon="7.16134">
        <ele>322.2</ele>
        <time>2023-09-23T16:38:35Z</time>
      </trkpt>
      <trkpt lat="48.70913" lon="7.16138">
        <ele>321.3</ele>
        <time>2023-09-23T16:38:41Z</time>
      </trkpt>
      <trkpt lat="48.70933" lon="7.1614">
        <ele>320.6</ele>
        <time>2023-09-23T16:38:47Z</time>
      </trkpt>
      <trkpt lat="48.70952" lon="7.16143">
        <ele>319.9</ele>
        <time>2023-09-23T16:38:53Z</time>
      </trkpt>
      <trkpt lat="48.70973" lon="7.16149">
        <ele>319.2</ele>
        <time>2023-09-23T16:38:59Z</time>
      </trkpt>
      <trkpt lat="48.70992" lon="7.16155">
        <ele>318.7</ele>
        <time>2023-09-23T16:39:05Z</time>
      </trkpt>
      <trkpt lat="48.71014" lon="7.1616">
        <ele>318.4</ele>
        <time>2023-09-23T16:39:11Z</time>
      </trkpt>
      <trkpt lat="48.71032" lon="7.16163">
        <ele>318.2</ele>
        <time>2023-09-23T16:39:16Z</time>
      </trkpt>
      <trkpt lat="48.71052" lon="7.16169">
        <ele>318</ele>
        <time>2023-09-23T16:39:22Z</time>
      </trkpt>
      <trkpt lat="48.71071" lon="7.16178">
        <ele>317.9</ele>
        <time>2023-09-23T16:39:28Z</time>
      </trkpt>
      <trkpt lat="48.71088" lon="7.16193">
        <ele>317.7</ele>
        <time>2023-09-23T16:39:34Z</time>
      </trkpt>
      <trkpt lat="48.71102" lon="7.16211">
        <ele>317.6</ele>
        <time>2023-09-23T16:39:39Z</time>
      </trkpt>
      <trkpt lat="48.71115" lon="7.16232">
        <ele>317.3</ele>
        <time>2023-09-23T16:39:45Z</time>
      </trkpt>
      <trkpt lat="48.71131" lon="7.16254">
        <ele>317</ele>
        <time>2023-09-23T16:39:52Z</time>
      </trkpt>
      <trkpt lat="48.71149" lon="7.16269">
        <ele>316.3</ele>
        <time>2023-09-23T16:39:59Z</time>
      </trkpt>
      <trkpt lat="48.7115" lon="7.16272">
        <ele>316.2</ele>
        <time>2023-09-23T16:40:00Z</time>
      </trkpt>
    </trkseg>
  </trk>
</gpx>